sensor_id;sensor_type;location;lat;lon;timestamp;P1;durP1;ratioP1;P2;durP2;ratioP2
40849;SDS011;26571;41.610;25.380;2022-08-21T17:15:57;6.25;;;2.72;;
40849;SDS011;26571;41.610;25.380;2022-08-21T17:18:23;1.60;;;1.50;;
40849;SDS011;26571;41.610;25.380;2022-08-21T17:20:50;2.17;;;2.00;;
40849;SDS011;26571;41.610;25.380;2022-08-21T17:23:16;3.70;;;2.33;;
40849;SDS011;26571;41.610;25.380;2022-08-21T17:28:13;2.25;;;1.70;;
40849;SDS011;26571;41.610;25.380;2022-08-21T17:30:43;3.92;;;2.85;;
40849;SDS011;26571;41.610;25.380;2022-08-21T17:33:11;2.22;;;2.13;;
40849;SDS011;26571;41.610;25.380;2022-08-21T17:35:38;3.55;;;2.45;;
40849;SDS011;26571;41.610;25.380;2022-08-21T17:38:04;4.40;;;3.08;;
40849;SDS011;26571;41.610;25.380;2022-08-21T17:40:30;3.03;;;2.73;;
40849;SDS011;26571;41.610;25.380;2022-08-21T17:42:56;4.83;;;2.83;;
40849;SDS011;26571;41.610;25.380;2022-08-21T17:45:22;5.47;;;3.45;;
40849;SDS011;26571;41.610;25.380;2022-08-21T17:47:48;7.80;;;3.88;;
40849;SDS011;26571;41.610;25.380;2022-08-21T17:50:14;10.27;;;5.13;;
40849;SDS011;26571;41.610;25.380;2022-08-21T17:52:41;6.53;;;3.28;;
40849;SDS011;26571;41.610;25.380;2022-08-21T17:55:09;3.42;;;3.03;;
40849;SDS011;26571;41.610;25.380;2022-08-21T17:57:38;4.88;;;3.47;;
40849;SDS011;26571;41.610;25.380;2022-08-21T18:00:06;6.75;;;3.50;;
40849;SDS011;26571;41.610;25.380;2022-08-21T18:02:35;5.43;;;2.88;;
40849;SDS011;26571;41.610;25.380;2022-08-21T18:07:28;6.82;;;3.70;;
40849;SDS011;26571;41.610;25.380;2022-08-21T18:09:53;5.37;;;4.60;;
40849;SDS011;26571;41.610;25.380;2022-08-21T18:12:19;3.37;;;3.13;;
40849;SDS011;26571;41.610;25.380;2022-08-21T18:14:44;6.53;;;4.10;;
40849;SDS011;26571;41.610;25.380;2022-08-21T18:17:11;4.77;;;3.73;;
40849;SDS011;26571;41.610;25.380;2022-08-21T18:19:41;3.80;;;2.72;;
40849;SDS011;26571;41.610;25.380;2022-08-21T18:22:07;5.00;;;3.53;;
40849;SDS011;26571;41.610;25.380;2022-08-21T18:24:33;3.83;;;3.50;;
40849;SDS011;26571;41.610;25.380;2022-08-21T18:27:00;4.22;;;2.72;;
40849;SDS011;26571;41.610;25.380;2022-08-21T18:29:27;10.48;;;3.63;;
40849;SDS011;26571;41.610;25.380;2022-08-21T18:31:52;5.23;;;3.50;;
40849;SDS011;26571;41.610;25.380;2022-08-21T18:36:43;8.13;;;3.80;;
40849;SDS011;26571;41.610;25.380;2022-08-21T18:39:09;5.87;;;4.43;;
40849;SDS011;26571;41.610;25.380;2022-08-21T18:41:34;8.03;;;7.37;;
40849;SDS011;26571;41.610;25.380;2022-08-21T18:43:59;42.40;;;33.00;;
40849;SDS011;26571;41.610;25.380;2022-08-21T18:46:25;44.07;;;32.80;;
40849;SDS011;26571;41.610;25.380;2022-08-21T18:48:51;17.30;;;8.20;;
40849;SDS011;26571;41.610;25.380;2022-08-21T18:51:16;4.57;;;3.93;;
40849;SDS011;26571;41.610;25.380;2022-08-21T18:53:41;3.57;;;3.33;;
40849;SDS011;26571;41.610;25.380;2022-08-21T18:56:07;6.27;;;3.73;;
40849;SDS011;26571;41.610;25.380;2022-08-21T18:58:33;5.93;;;3.27;;
40849;SDS011;26571;41.610;25.380;2022-08-21T19:00:59;3.95;;;2.65;;
40849;SDS011;26571;41.610;25.380;2022-08-21T19:03:25;5.23;;;4.27;;
40849;SDS011;26571;41.610;25.380;2022-08-21T19:05:51;4.23;;;3.83;;
40849;SDS011;26571;41.610;25.380;2022-08-21T19:08:19;3.58;;;3.22;;
40849;SDS011;26571;41.610;25.380;2022-08-21T19:10:47;7.65;;;3.45;;
40849;SDS011;26571;41.610;25.380;2022-08-21T19:13:17;5.88;;;3.45;;
40849;SDS011;26571;41.610;25.380;2022-08-21T19:15:45;8.43;;;3.95;;
40849;SDS011;26571;41.610;25.380;2022-08-21T19:18:14;7.05;;;3.67;;
40849;SDS011;26571;41.610;25.380;2022-08-21T19:20:41;5.90;;;3.63;;
40849;SDS011;26571;41.610;25.380;2022-08-21T19:23:08;3.53;;;3.17;;
40849;SDS011;26571;41.610;25.380;2022-08-21T19:25:36;7.03;;;3.95;;
40849;SDS011;26571;41.610;25.380;2022-08-21T19:28:05;4.15;;;3.70;;
40849;SDS011;26571;41.610;25.380;2022-08-21T19:30:35;5.60;;;3.92;;
40849;SDS011;26571;41.610;25.380;2022-08-21T19:33:01;7.72;;;3.65;;
40849;SDS011;26571;41.610;25.380;2022-08-21T19:35:27;3.90;;;3.57;;
40849;SDS011;26571;41.610;25.380;2022-08-21T19:37:53;4.97;;;4.57;;
40849;SDS011;26571;41.610;25.380;2022-08-21T19:40:18;5.20;;;4.53;;
40849;SDS011;26571;41.610;25.380;2022-08-21T19:42:44;6.53;;;3.83;;
40849;SDS011;26571;41.610;25.380;2022-08-21T19:45:10;8.13;;;4.03;;
40849;SDS011;26571;41.610;25.380;2022-08-21T19:47:38;4.05;;;3.22;;
40849;SDS011;26571;41.610;25.380;2022-08-21T19:50:12;7.53;;;3.58;;
40849;SDS011;26571;41.610;25.380;2022-08-21T19:52:39;3.28;;;3.08;;
40849;SDS011;26571;41.610;25.380;2022-08-21T19:55:05;6.40;;;4.00;;
40849;SDS011;26571;41.610;25.380;2022-08-21T19:57:32;11.55;;;4.75;;
40849;SDS011;26571;41.610;25.380;2022-08-21T19:59:58;4.87;;;4.23;;
40849;SDS011;26571;41.610;25.380;2022-08-21T20:02:24;7.13;;;5.40;;
40849;SDS011;26571;41.610;25.380;2022-08-21T20:04:50;6.20;;;3.33;;
40849;SDS011;26571;41.610;25.380;2022-08-21T20:07:15;7.82;;;3.50;;
40849;SDS011;26571;41.610;25.380;2022-08-21T20:09:41;4.90;;;2.90;;
40849;SDS011;26571;41.610;25.380;2022-08-21T20:12:07;6.32;;;3.03;;
40849;SDS011;26571;41.610;25.380;2022-08-21T20:14:38;3.25;;;3.00;;
40849;SDS011;26571;41.610;25.380;2022-08-21T20:17:08;3.40;;;3.08;;
40849;SDS011;26571;41.610;25.380;2022-08-21T20:19:36;4.38;;;3.10;;
40849;SDS011;26571;41.610;25.380;2022-08-21T20:22:05;7.70;;;3.58;;
40849;SDS011;26571;41.610;25.380;2022-08-21T20:24:31;6.03;;;3.40;;
40849;SDS011;26571;41.610;25.380;2022-08-21T20:26:57;5.18;;;3.97;;
40849;SDS011;26571;41.610;25.380;2022-08-21T20:29:23;3.60;;;3.30;;
40849;SDS011;26571;41.610;25.380;2022-08-21T20:31:50;4.90;;;3.10;;
40849;SDS011;26571;41.610;25.380;2022-08-21T20:34:15;5.07;;;4.57;;
40849;SDS011;26571;41.610;25.380;2022-08-21T20:36:41;5.07;;;3.90;;
40849;SDS011;26571;41.610;25.380;2022-08-21T20:39:06;3.73;;;3.43;;
40849;SDS011;26571;41.610;25.380;2022-08-21T20:41:32;4.77;;;4.37;;
40849;SDS011;26571;41.610;25.380;2022-08-21T20:43:59;10.23;;;6.55;;
40849;SDS011;26571;41.610;25.380;2022-08-21T20:46:25;6.35;;;4.93;;
40849;SDS011;26571;41.610;25.380;2022-08-21T20:48:52;5.15;;;4.75;;
40849;SDS011;26571;41.610;25.380;2022-08-21T20:51:33;9.37;;;5.13;;
40849;SDS011;26571;41.610;25.380;2022-08-21T20:54:06;4.85;;;4.43;;
40849;SDS011;26571;41.610;25.380;2022-08-21T20:56:45;5.80;;;4.70;;
40849;SDS011;26571;41.610;25.380;2022-08-21T21:01:56;5.55;;;4.30;;
40849;SDS011;26571;41.610;25.380;2022-08-21T21:04:47;8.10;;;3.63;;
40849;SDS011;26571;41.610;25.380;2022-08-21T21:07:15;3.78;;;3.42;;
40849;SDS011;26571;41.610;25.380;2022-08-21T21:09:46;3.83;;;2.80;;
40849;SDS011;26571;41.610;25.380;2022-08-21T21:12:16;4.95;;;3.28;;
40849;SDS011;26571;41.610;25.380;2022-08-21T21:14:50;7.22;;;3.40;;
40849;SDS011;26571;41.610;25.380;2022-08-21T21:18:00;6.28;;;3.03;;
40849;SDS011;26571;41.610;25.380;2022-08-21T21:20:11;3.95;;;2.92;;
40849;SDS011;26571;41.610;25.380;2022-08-21T21:22:46;3.25;;;2.92;;
40849;SDS011;26571;41.610;25.380;2022-08-21T21:28:39;4.13;;;3.55;;
40849;SDS011;26571;41.610;25.380;2022-08-21T21:31:19;5.35;;;2.83;;
40849;SDS011;26571;41.610;25.380;2022-08-21T21:33:45;3.37;;;2.50;;
40849;SDS011;26571;41.610;25.380;2022-08-21T21:36:18;3.75;;;3.45;;
40849;SDS011;26571;41.610;25.380;2022-08-21T21:38:52;4.43;;;4.13;;
40849;SDS011;26571;41.610;25.380;2022-08-21T21:41:30;5.47;;;3.28;;
40849;SDS011;26571;41.610;25.380;2022-08-21T22:00:22;13.32;;;7.05;;
40849;SDS011;26571;41.610;25.380;2022-08-21T22:03:04;6.70;;;4.50;;
40849;SDS011;26571;41.610;25.380;2022-08-21T22:14:00;11.10;;;5.70;;
40849;SDS011;26571;41.610;25.380;2022-08-21T22:16:47;6.70;;;5.22;;
40849;SDS011;26571;41.610;25.380;2022-08-21T22:19:19;7.47;;;5.63;;
40849;SDS011;26571;41.610;25.380;2022-08-21T22:22:13;11.52;;;6.75;;
40849;SDS011;26571;41.610;25.380;2022-08-21T22:24:41;9.73;;;5.22;;
40849;SDS011;26571;41.610;25.380;2022-08-21T22:27:19;10.15;;;7.18;;
40849;SDS011;26571;41.610;25.380;2022-08-21T22:29:51;8.75;;;6.00;;
40849;SDS011;26571;41.610;25.380;2022-08-21T22:35:01;5.40;;;5.00;;
40849;SDS011;26571;41.610;25.380;2022-08-21T22:37:34;6.97;;;5.25;;
40849;SDS011;26571;41.610;25.380;2022-08-21T22:40:02;6.75;;;6.15;;
40849;SDS011;26571;41.610;25.380;2022-08-21T22:42:29;13.75;;;6.45;;
40849;SDS011;26571;41.610;25.380;2022-08-21T22:45:02;7.17;;;5.07;;
40849;SDS011;26571;41.610;25.380;2022-08-21T22:50:00;7.55;;;5.45;;
40849;SDS011;26571;41.610;25.380;2022-08-21T22:52:34;7.53;;;6.18;;
40849;SDS011;26571;41.610;25.380;2022-08-21T22:55:03;7.20;;;6.15;;
40849;SDS011;26571;41.610;25.380;2022-08-21T22:58:02;7.55;;;5.30;;
40849;SDS011;26571;41.610;25.380;2022-08-21T23:03:21;11.27;;;6.13;;
40849;SDS011;26571;41.610;25.380;2022-08-21T23:05:50;7.07;;;5.20;;
40849;SDS011;26571;41.610;25.380;2022-08-21T23:10:44;6.55;;;4.22;;
40849;SDS011;26571;41.610;25.380;2022-08-21T23:13:14;5.03;;;3.70;;
40849;SDS011;26571;41.610;25.380;2022-08-21T23:21:47;6.03;;;5.53;;
40849;SDS011;26571;41.610;25.380;2022-08-21T23:35:15;7.68;;;5.15;;
40849;SDS011;26571;41.610;25.380;2022-08-21T23:37:46;4.85;;;4.45;;
40849;SDS011;26571;41.610;25.380;2022-08-21T23:40:44;7.15;;;4.65;;
40849;SDS011;26571;41.610;25.380;2022-08-21T23:51:31;4.35;;;3.92;;
